Time;durP1;ratioP1;P1;durP2;ratioP2;P2;SDS_P1;SDS_P2;PMS_P1;PMS_P2;Temp;Humidity;BMP_temperature;BMP_pressure;BME280_temperature;BME280_humidity;BME280_pressure;Samples;Min_cycle;Max_cycle;Signal;HPM_P1;HPM_P2
2021/12/21 00:00:48;;;;;;;5.30;3.47;;;;;;;;;;4986500;28;20221;-74
2021/12/21 00:03:16;;;;;;;6.67;3.80;;;;;;;;;;4976192;28;20657;-74
2021/12/21 00:05:44;;;;;;;5.50;4.00;;;;;;;;;;5009700;28;20256;-73
2021/12/21 00:08:12;;;;;;;5.67;3.77;;;;;;;;;;4993503;28;20702;-73
2021/12/21 00:10:38;;;;;;;7.80;4.70;;;;;;;;;;4990285;28;20221;-74
2021/12/21 00:13:09;;;;;;;8.57;5.03;;;;;;;;;;4973277;28;20221;-73
2021/12/21 00:18:14;;;;;;;6.40;5.00;;;;;;;;;;4992526;28;20706;-73
2021/12/21 00:26:12;;;;;;;8.03;5.47;;;;;;;;;;4995681;28;20290;-73
2021/12/21 00:28:55;;;;;;;7.60;5.20;;;;;;;;;;4976808;28;20228;-73
2021/12/21 00:31:23;;;;;;;6.73;4.57;;;;;;;;;;4989868;28;20241;-73
2021/12/21 00:33:53;;;;;;;7.47;4.63;;;;;;;;;;4974507;28;20685;-72
2021/12/21 00:36:23;;;;;;;7.23;4.83;;;;;;;;;;4972829;28;20309;-74
2021/12/21 00:38:48;;;;;;;6.13;4.60;;;;;;;;;;4974338;28;20218;-73
2021/12/21 00:41:14;;;;;;;7.50;4.77;;;;;;;;;;4983624;28;20689;-74
2021/12/21 00:43:40;;;;;;;10.07;4.50;;;;;;;;;;4976406;28;20706;-75
2021/12/21 00:46:05;;;;;;;8.63;4.53;;;;;;;;;;4989158;28;20233;-73
2021/12/21 00:48:35;;;;;;;6.50;4.60;;;;;;;;;;4973974;28;20214;-73
2021/12/21 00:51:03;;;;;;;9.03;4.90;;;;;;;;;;4961571;28;20217;-75
2021/12/21 00:53:29;;;;;;;5.80;4.33;;;;;;;;;;4972952;28;20451;-74
2021/12/21 00:55:58;;;;;;;7.33;4.77;;;;;;;;;;4991748;28;20312;-74
2021/12/21 00:58:25;;;;;;;8.33;4.83;;;;;;;;;;4983820;28;20295;-73
2021/12/21 01:00:53;;;;;;;5.60;4.13;;;;;;;;;;5009190;28;20213;-74
2021/12/21 01:03:22;;;;;;;6.73;4.53;;;;;;;;;;5008956;28;20231;-74
2021/12/21 01:06:05;;;;;;;10.97;4.63;;;;;;;;;;4980851;28;20299;-73
2021/12/21 01:08:45;;;;;;;6.00;4.70;;;;;;;;;;4996078;28;20225;-74
2021/12/21 01:11:21;;;;;;;5.63;4.13;;;;;;;;;;5013344;28;20288;-73
2021/12/21 01:14:07;;;;;;;8.03;4.80;;;;;;;;;;4996398;28;20711;-72
2021/12/21 01:16:41;;;;;;;9.50;4.47;;;;;;;;;;4994836;28;20252;-73
2021/12/21 01:19:20;;;;;;;8.10;5.00;;;;;;;;;;4977158;28;20364;-75
2021/12/21 01:35:52;;;;;;;4.47;3.17;;;;;;;;;;4939344;28;20238;-74
2021/12/21 01:38:38;;;;;;;4.30;3.03;;;;;;;;;;4972589;28;20780;-74
2021/12/21 01:41:06;;;;;;;3.60;2.73;;;;;;;;;;4986806;28;20229;-74
2021/12/21 01:43:48;;;;;;;5.83;3.37;;;;;;;;;;4966910;28;20236;-75
2021/12/21 01:51:51;;;;;;;4.40;2.50;;;;;;;;;;4997823;28;20225;-73
2021/12/21 01:54:18;;;;;;;4.33;2.60;;;;;;;;;;5012738;28;20220;-73
2021/12/21 01:56:46;;;;;;;5.23;2.83;;;;;;;;;;5009237;28;20208;-74
2021/12/21 01:59:12;;;;;;;4.13;2.80;;;;;;;;;;4995353;28;20263;-74
2021/12/21 02:01:37;;;;;;;4.00;2.87;;;;;;;;;;5012555;28;20217;-74
2021/12/21 02:04:08;;;;;;;3.73;2.60;;;;;;;;;;5011436;28;20225;-74
2021/12/21 02:06:34;;;;;;;4.70;2.90;;;;;;;;;;4967650;28;20229;-74
2021/12/21 02:08:59;;;;;;;5.07;3.00;;;;;;;;;;5015967;28;20228;-74
2021/12/21 02:11:25;;;;;;;6.30;3.03;;;;;;;;;;5015825;28;20224;-75
2021/12/21 02:13:53;;;;;;;3.70;2.47;;;;;;;;;;4977017;28;20221;-74
2021/12/21 02:16:26;;;;;;;5.63;3.00;;;;;;;;;;4959890;28;20233;-74
2021/12/21 02:19:00;;;;;;;5.80;2.83;;;;;;;;;;4996486;28;20277;-73
2021/12/21 02:21:37;;;;;;;5.47;2.93;;;;;;;;;;5011393;28;20216;-73
2021/12/21 02:24:09;;;;;;;4.47;3.07;;;;;;;;;;4992485;28;20316;-74
2021/12/21 02:26:46;;;;;;;8.73;3.50;;;;;;;;;;4961646;28;20229;-74
2021/12/21 02:29:25;;;;;;;7.60;3.57;;;;;;;;;;4992359;28;20695;-73
2021/12/21 02:31:51;;;;;;;5.33;3.87;;;;;;;;;;4962953;28;20213;-74
2021/12/21 02:34:17;;;;;;;7.27;4.07;;;;;;;;;;4962625;28;20223;-74
2021/12/21 02:36:44;;;;;;;8.17;4.53;;;;;;;;;;4979568;28;20228;-73
2021/12/21 02:39:10;;;;;;;7.73;4.30;;;;;;;;;;4991288;28;20224;-74
2021/12/21 02:41:38;;;;;;;8.03;4.50;;;;;;;;;;4975218;28;20707;-74
2021/12/21 02:44:09;;;;;;;6.90;4.40;;;;;;;;;;5009304;28;20244;-73
2021/12/21 02:46:34;;;;;;;9.30;3.83;;;;;;;;;;4995337;28;20316;-73
2021/12/21 02:49:05;;;;;;;8.50;4.47;;;;;;;;;;5010640;28;20319;-73
2021/12/21 02:51:32;;;;;;;6.90;4.60;;;;;;;;;;5009952;28;20221;-73
2021/12/21 02:54:00;;;;;;;7.10;4.53;;;;;;;;;;4978963;28;20233;-73
2021/12/21 02:56:26;;;;;;;6.83;4.50;;;;;;;;;;4974541;28;20216;-73
2021/12/21 02:58:56;;;;;;;5.43;4.37;;;;;;;;;;5006529;28;20616;-74
2021/12/21 03:01:28;;;;;;;8.00;4.60;;;;;;;;;;4974675;28;20237;-75
2021/12/21 03:03:58;;;;;;;4.90;4.23;;;;;;;;;;5005125;28;20228;-73
2021/12/21 03:08:57;;;;;;;6.27;3.13;;;;;;;;;;5002218;28;20304;-73
2021/12/21 03:11:47;;;;;;;6.83;3.90;;;;;;;;;;5009886;28;20334;-73
2021/12/21 03:14:13;;;;;;;5.63;3.73;;;;;;;;;;4995638;28;20220;-73
2021/12/21 03:16:39;;;;;;;7.73;4.10;;;;;;;;;;4993943;28;20216;-74
2021/12/21 03:19:11;;;;;;;6.27;4.23;;;;;;;;;;4968301;28;20715;-73
2021/12/21 03:21:39;;;;;;;8.73;4.23;;;;;;;;;;4973946;28;20217;-73
2021/12/21 03:24:05;;;;;;;7.57;4.20;;;;;;;;;;4982251;28;20678;-74
2021/12/21 03:26:33;;;;;;;7.40;4.40;;;;;;;;;;4974099;28;20275;-73
2021/12/21 03:28:59;;;;;;;7.90;5.10;;;;;;;;;;4991925;28;20239;-74
2021/12/21 03:31:25;;;;;;;7.50;4.97;;;;;;;;;;5011063;28;20236;-74
2021/12/21 03:33:52;;;;;;;8.13;4.97;;;;;;;;;;4974438;28;20218;-74
2021/12/21 03:36:18;;;;;;;7.77;5.10;;;;;;;;;;4989835;28;20240;-74
2021/12/21 03:38:51;;;;;;;10.20;5.17;;;;;;;;;;4974156;28;20708;-74
2021/12/21 03:41:19;;;;;;;7.47;4.77;;;;;;;;;;4974824;28;20234;-74
2021/12/21 03:43:48;;;;;;;9.43;5.40;;;;;;;;;;4963840;28;20733;-74
2021/12/21 03:46:15;;;;;;;6.50;4.43;;;;;;;;;;4989961;28;20707;-74
2021/12/21 03:48:44;;;;;;;9.07;4.90;;;;;;;;;;4995444;28;20220;-74
2021/12/21 03:51:13;;;;;;;6.77;4.87;;;;;;;;;;4962773;28;20225;-74
2021/12/21 03:53:39;;;;;;;7.40;4.90;;;;;;;;;;4990240;28;20222;-74
2021/12/21 03:58:43;;;;;;;6.70;4.97;;;;;;;;;;5009082;28;20208;-74
2021/12/21 04:01:11;;;;;;;8.47;5.20;;;;;;;;;;4977229;28;20271;-74
2021/12/21 04:03:37;;;;;;;7.33;4.90;;;;;;;;;;5010399;28;20224;-74
2021/12/21 04:06:03;;;;;;;6.17;4.57;;;;;;;;;;5011587;28;20316;-74
2021/12/21 04:08:31;;;;;;;8.13;5.50;;;;;;;;;;5022771;28;20303;-74
2021/12/21 04:10:56;;;;;;;6.97;4.80;;;;;;;;;;4994954;28;20246;-74
2021/12/21 04:13:22;;;;;;;10.40;5.17;;;;;;;;;;5000881;28;20244;-74
2021/12/21 04:15:53;;;;;;;8.03;4.73;;;;;;;;;;5001131;28;20230;-74
2021/12/21 04:18:22;;;;;;;7.93;4.23;;;;;;;;;;5005070;28;20224;-73
2021/12/21 04:20:48;;;;;;;10.43;4.67;;;;;;;;;;4994285;28;20216;-74
2021/12/21 04:23:14;;;;;;;6.83;4.10;;;;;;;;;;4978490;28;20235;-73
2021/12/21 04:25:39;;;;;;;5.60;4.23;;;;;;;;;;4992089;28;20237;-73
2021/12/21 04:28:07;;;;;;;7.30;4.30;;;;;;;;;;4990843;28;20225;-72
2021/12/21 04:30:33;;;;;;;8.23;4.57;;;;;;;;;;4991033;28;20217;-72
2021/12/21 04:33:00;;;;;;;29.30;15.77;;;;;;;;;;5012951;28;20726;-73
2021/12/21 04:35:30;;;;;;;13.07;8.17;;;;;;;;;;5001272;28;20234;-73
2021/12/21 04:38:11;;;;;;;34.40;14.80;;;;;;;;;;4985283;28;20808;-73
2021/12/21 04:40:47;;;;;;;17.27;8.60;;;;;;;;;;5008200;28;20234;-73
2021/12/21 04:43:15;;;;;;;9.63;5.60;;;;;;;;;;4997137;28;20225;-73
2021/12/21 04:45:43;;;;;;;8.83;5.90;;;;;;;;;;4977614;28;20221;-73
2021/12/21 04:48:08;;;;;;;8.30;5.00;;;;;;;;;;4976913;28;20217;-73
2021/12/21 04:50:34;;;;;;;5.40;4.10;;;;;;;;;;5005979;28;20604;-73
2021/12/21 04:53:02;;;;;;;9.00;4.23;;;;;;;;;;4996428;28;20212;-73
2021/12/21 04:55:30;;;;;;;5.93;4.00;;;;;;;;;;4996549;28;20224;-72
2021/12/21 04:57:56;;;;;;;6.93;4.20;;;;;;;;;;5012956;28;20220;-72
2021/12/21 05:00:22;;;;;;;6.60;4.63;;;;;;;;;;4980940;28;20232;-72
2021/12/21 05:02:50;;;;;;;7.40;4.20;;;;;;;;;;5011464;28;20724;-72
2021/12/21 05:05:17;;;;;;;8.10;4.90;;;;;;;;;;5011561;28;20267;-72
2021/12/21 05:07:51;;;;;;;6.13;4.57;;;;;;;;;;4990622;28;20221;-73
2021/12/21 05:10:19;;;;;;;7.47;4.77;;;;;;;;;;5006752;28;20220;-73
2021/12/21 05:12:45;;;;;;;7.23;4.60;;;;;;;;;;5016215;28;20278;-72
2021/12/21 05:15:11;;;;;;;5.77;4.23;;;;;;;;;;5025924;28;20225;-73
2021/12/21 05:17:36;;;;;;;5.50;4.23;;;;;;;;;;4995856;28;20224;-72
2021/12/21 05:20:05;;;;;;;6.00;4.27;;;;;;;;;;4992031;28;20210;-74
2021/12/21 05:22:32;;;;;;;10.00;5.77;;;;;;;;;;4959764;28;20288;-73
2021/12/21 05:24:58;;;;;;;9.57;6.47;;;;;;;;;;4979089;28;20260;-74
2021/12/21 05:27:26;;;;;;;9.00;5.80;;;;;;;;;;4982170;28;20598;-73
2021/12/21 05:29:51;;;;;;;8.10;5.00;;;;;;;;;;4994032;28;20217;-73
2021/12/21 05:32:20;;;;;;;5.57;4.40;;;;;;;;;;5012576;28;20311;-73
2021/12/21 05:34:48;;;;;;;7.03;4.77;;;;;;;;;;4980254;28;20760;-73
2021/12/21 05:37:13;;;;;;;9.03;4.60;;;;;;;;;;4992124;28;20221;-72
2021/12/21 05:39:57;;;;;;;8.30;4.90;;;;;;;;;;4992652;28;20638;-72
2021/12/21 05:42:25;;;;;;;5.77;4.77;;;;;;;;;;4993159;28;20236;-72
2021/12/21 05:44:50;;;;;;;9.47;5.57;;;;;;;;;;4992875;28;20288;-71
2021/12/21 05:47:20;;;;;;;5.37;4.10;;;;;;;;;;4994493;28;20760;-74
2021/12/21 05:49:46;;;;;;;6.73;4.03;;;;;;;;;;4979515;28;20217;-72
2021/12/21 05:52:16;;;;;;;11.17;4.00;;;;;;;;;;4991953;28;20609;-72
2021/12/21 05:54:44;;;;;;;6.37;4.60;;;;;;;;;;4992256;28;20222;-72
2021/12/21 05:57:10;;;;;;;5.20;4.00;;;;;;;;;;4979626;28;20710;-73
2021/12/21 05:59:35;;;;;;;7.50;4.77;;;;;;;;;;4976007;28;20225;-72
2021/12/21 06:02:01;;;;;;;9.10;4.67;;;;;;;;;;4990500;28;20252;-73
2021/12/21 06:04:28;;;;;;;5.90;4.47;;;;;;;;;;4994852;28;20231;-73
2021/12/21 06:06:59;;;;;;;6.03;4.23;;;;;;;;;;4996126;28;20224;-73
2021/12/21 06:09:28;;;;;;;6.47;4.20;;;;;;;;;;4979678;28;20220;-73
2021/12/21 06:28:14;;;;;;;7.27;4.07;;;;;;;;;;4987526;28;20312;-72
2021/12/21 06:30:42;;;;;;;6.30;4.13;;;;;;;;;;4971696;28;20324;-72
2021/12/21 06:33:08;;;;;;;4.63;3.60;;;;;;;;;;4976113;28;20283;-73
2021/12/21 06:35:34;;;;;;;5.83;3.93;;;;;;;;;;4999255;28;20241;-73
2021/12/21 06:38:02;;;;;;;5.03;3.73;;;;;;;;;;4975302;28;20696;-73
2021/12/21 06:40:28;;;;;;;6.10;4.07;;;;;;;;;;4987671;28;20863;-73
2021/12/21 06:43:01;;;;;;;6.77;4.37;;;;;;;;;;5010628;28;20733;-73
2021/12/21 06:53:41;;;;;;;7.10;4.23;;;;;;;;;;5006151;28;20255;-74
2021/12/21 06:56:07;;;;;;;7.60;4.50;;;;;;;;;;4992142;28;20237;-73
2021/12/21 06:58:33;;;;;;;8.40;4.60;;;;;;;;;;4992444;28;20248;-73
2021/12/21 07:01:02;;;;;;;7.23;4.50;;;;;;;;;;4975570;28;20236;-73
2021/12/21 07:03:27;;;;;;;8.20;4.80;;;;;;;;;;5009504;28;20645;-73
2021/12/21 07:05:53;;;;;;;7.80;5.37;;;;;;;;;;4994806;28;20339;-73
2021/12/21 07:08:27;;;;;;;11.50;6.33;;;;;;;;;;4989035;28;20229;-73
2021/12/21 07:19:25;;;;;;;8.10;4.63;;;;;;;;;;4921298;29;20230;-73
2021/12/21 07:21:52;;;;;;;7.47;4.50;;;;;;;;;;4990156;28;20209;-73
2021/12/21 07:24:18;;;;;;;7.63;4.50;;;;;;;;;;5011616;28;20589;-73
2021/12/21 07:26:46;;;;;;;4.57;3.73;;;;;;;;;;5011616;28;20303;-73
2021/12/21 07:29:16;;;;;;;6.60;3.87;;;;;;;;;;4994396;28;20244;-74
2021/12/21 07:31:43;;;;;;;5.60;3.87;;;;;;;;;;5001187;28;20217;-72
2021/12/21 07:34:08;;;;;;;8.53;3.93;;;;;;;;;;4973751;28;20601;-72
2021/12/21 07:36:36;;;;;;;5.10;3.73;;;;;;;;;;4990770;28;20691;-72
2021/12/21 07:39:06;;;;;;;8.40;3.90;;;;;;;;;;4977697;28;20718;-73
2021/12/21 07:41:36;;;;;;;7.37;4.17;;;;;;;;;;4986236;28;20221;-73
2021/12/21 07:44:04;;;;;;;7.33;4.10;;;;;;;;;;4975403;28;20279;-73
2021/12/21 07:46:29;;;;;;;5.43;4.40;;;;;;;;;;4993136;28;20231;-72
2021/12/21 07:48:55;;;;;;;5.73;3.70;;;;;;;;;;4976217;28;20242;-73
2021/12/21 07:51:24;;;;;;;5.40;3.83;;;;;;;;;;4992448;28;20716;-72
2021/12/21 07:53:52;;;;;;;6.70;4.17;;;;;;;;;;4987997;28;20227;-72
2021/12/21 07:56:20;;;;;;;5.50;3.70;;;;;;;;;;4976993;28;20224;-72
2021/12/21 07:58:47;;;;;;;4.37;3.77;;;;;;;;;;4991087;28;20225;-72
2021/12/21 08:01:13;;;;;;;6.60;3.80;;;;;;;;;;4993493;28;20250;-72
2021/12/21 08:03:40;;;;;;;6.20;3.70;;;;;;;;;;4973611;28;20312;-72
2021/12/21 08:06:07;;;;;;;9.90;5.70;;;;;;;;;;5005797;28;20226;-72
2021/12/21 08:08:36;;;;;;;8.60;4.97;;;;;;;;;;4990965;28;20315;-73
2021/12/21 08:13:35;;;;;;;7.10;5.10;;;;;;;;;;4992264;28;20220;-72
2021/12/21 08:16:01;;;;;;;6.47;4.73;;;;;;;;;;5009046;28;20228;-71
2021/12/21 08:18:26;;;;;;;6.13;4.17;;;;;;;;;;5005950;28;20589;-72
2021/12/21 08:20:52;;;;;;;4.67;4.10;;;;;;;;;;4974906;28;20232;-71
2021/12/21 08:23:18;;;;;;;5.90;4.20;;;;;;;;;;5000491;28;21536;-72
2021/12/21 08:25:43;;;;;;;8.50;4.27;;;;;;;;;;5013054;28;20632;-72
2021/12/21 08:28:10;;;;;;;9.10;5.33;;;;;;;;;;5013231;28;20225;-71
2021/12/21 08:30:36;;;;;;;10.57;6.17;;;;;;;;;;5000877;28;20304;-72
2021/12/21 08:33:01;;;;;;;9.03;6.23;;;;;;;;;;4992508;28;20319;-71
2021/12/21 08:35:27;;;;;;;7.70;4.40;;;;;;;;;;4975300;28;20229;-72
2021/12/21 08:38:03;;;;;;;7.67;4.70;;;;;;;;;;4992723;28;20236;-71
2021/12/21 08:40:38;;;;;;;7.67;5.40;;;;;;;;;;5009872;28;20828;-72
2021/12/21 08:43:10;;;;;;;9.93;7.07;;;;;;;;;;4961815;28;20232;-72
2021/12/21 08:45:40;;;;;;;15.10;8.93;;;;;;;;;;4960909;28;20729;-71
2021/12/21 08:48:06;;;;;;;14.30;8.30;;;;;;;;;;4992782;28;20232;-73
2021/12/21 08:50:34;;;;;;;15.37;8.47;;;;;;;;;;4992963;28;20216;-73
2021/12/21 08:53:00;;;;;;;11.77;7.57;;;;;;;;;;4961136;28;20235;-72
2021/12/21 08:55:27;;;;;;;15.17;9.67;;;;;;;;;;4973169;28;20222;-72
2021/12/21 08:57:55;;;;;;;19.37;11.93;;;;;;;;;;4973158;28;20312;-73
2021/12/21 09:00:21;;;;;;;17.07;12.63;;;;;;;;;;4990685;28;20221;-72
2021/12/21 09:02:50;;;;;;;15.87;11.30;;;;;;;;;;5009850;28;20633;-72
2021/12/21 09:05:18;;;;;;;11.27;7.70;;;;;;;;;;5009988;28;20236;-71
2021/12/21 09:07:44;;;;;;;9.73;7.67;;;;;;;;;;4977500;28;20303;-72
2021/12/21 09:10:11;;;;;;;10.07;7.20;;;;;;;;;;4972270;28;20729;-72
2021/12/21 09:12:39;;;;;;;7.73;5.17;;;;;;;;;;4990399;28;20228;-73
2021/12/21 09:15:08;;;;;;;6.97;5.50;;;;;;;;;;5003630;28;20221;-72
2021/12/21 09:17:34;;;;;;;4.90;4.23;;;;;;;;;;4992531;28;20229;-72
2021/12/21 09:20:03;;;;;;;6.60;4.27;;;;;;;;;;5008531;28;20225;-72
2021/12/21 09:22:29;;;;;;;8.07;5.37;;;;;;;;;;4975411;28;20217;-72
2021/12/21 09:24:58;;;;;;;10.40;6.37;;;;;;;;;;5006310;28;20221;-74
2021/12/21 09:27:26;;;;;;;8.33;6.07;;;;;;;;;;4974816;28;20304;-73
2021/12/21 09:29:54;;;;;;;9.83;5.73;;;;;;;;;;5023589;28;20255;-72
2021/12/21 09:32:24;;;;;;;8.87;5.80;;;;;;;;;;4990505;28;20723;-72
2021/12/21 09:34:51;;;;;;;5.30;4.33;;;;;;;;;;4976827;28;20608;-72
2021/12/21 09:37:20;;;;;;;7.77;4.70;;;;;;;;;;4976302;28;20225;-71
2021/12/21 09:39:52;;;;;;;5.27;4.73;;;;;;;;;;4990593;28;20303;-72
2021/12/21 09:42:22;;;;;;;7.60;5.13;;;;;;;;;;4993325;28;20227;-73
2021/12/21 09:44:51;;;;;;;6.77;5.00;;;;;;;;;;4990143;28;20228;-73
2021/12/21 09:47:17;;;;;;;5.40;4.90;;;;;;;;;;5014033;28;20229;-73
2021/12/21 09:49:43;;;;;;;5.40;4.90;;;;;;;;;;5005111;28;20251;-72
2021/12/21 09:52:09;;;;;;;8.97;5.73;;;;;;;;;;4987638;28;20589;-73
2021/12/21 09:54:40;;;;;;;8.13;4.87;;;;;;;;;;4985781;28;20209;-73
2021/12/21 09:57:06;;;;;;;7.50;5.37;;;;;;;;;;4997641;28;20218;-73
2021/12/21 09:59:36;;;;;;;8.80;5.73;;;;;;;;;;5005015;28;20220;-73
2021/12/21 10:02:05;;;;;;;8.53;6.40;;;;;;;;;;4995590;28;20231;-73
2021/12/21 10:04:47;;;;;;;8.70;7.40;;;;;;;;;;5021586;28;20220;-74
2021/12/21 10:07:15;;;;;;;9.87;7.60;;;;;;;;;;4993273;28;20221;-72
2021/12/21 10:09:43;;;;;;;8.97;7.77;;;;;;;;;;4971460;28;20221;-72
2021/12/21 10:12:12;;;;;;;10.90;9.07;;;;;;;;;;4995060;28;20299;-74
2021/12/21 10:14:43;;;;;;;9.67;8.67;;;;;;;;;;4979681;28;20303;-72
2021/12/21 10:17:09;;;;;;;10.70;8.77;;;;;;;;;;4991407;28;20227;-73
2021/12/21 10:19:35;;;;;;;11.87;8.53;;;;;;;;;;4979392;28;20658;-73
2021/12/21 10:22:27;;;;;;;18.87;8.30;;;;;;;;;;5011284;28;20236;-73
2021/12/21 10:24:53;;;;;;;13.70;8.10;;;;;;;;;;4992497;28;20227;-73
2021/12/21 10:27:22;;;;;;;11.17;8.03;;;;;;;;;;4995121;28;20220;-73
2021/12/21 10:29:57;;;;;;;9.17;7.90;;;;;;;;;;4979815;28;20613;-73
2021/12/21 10:32:34;;;;;;;12.20;7.17;;;;;;;;;;5010966;28;20224;-74
2021/12/21 10:35:02;;;;;;;12.93;6.80;;;;;;;;;;5011449;28;20228;-76
2021/12/21 10:37:35;;;;;;;10.57;6.67;;;;;;;;;;4994042;28;20255;-73
2021/12/21 10:40:22;;;;;;;9.20;6.27;;;;;;;;;;4977967;28;20244;-75
2021/12/21 10:43:00;;;;;;;9.30;6.10;;;;;;;;;;5001484;28;20217;-73
2021/12/21 10:45:33;;;;;;;8.53;6.87;;;;;;;;;;5014066;28;20236;-73
2021/12/21 10:48:01;;;;;;;7.50;6.67;;;;;;;;;;5013136;28;20860;-74
2021/12/21 10:50:32;;;;;;;10.57;7.50;;;;;;;;;;4988178;28;20213;-75
2021/12/21 10:53:01;;;;;;;8.77;6.63;;;;;;;;;;4965168;28;20264;-76
2021/12/21 10:55:35;;;;;;;9.27;8.17;;;;;;;;;;4977538;28;20306;-73
2021/12/21 10:58:09;;;;;;;8.80;7.87;;;;;;;;;;4994383;28;20220;-73
2021/12/21 11:00:36;;;;;;;9.10;7.50;;;;;;;;;;4978741;28;20590;-73
2021/12/21 11:03:04;;;;;;;8.70;7.80;;;;;;;;;;5011412;28;20225;-73
2021/12/21 11:05:32;;;;;;;11.70;8.43;;;;;;;;;;4994022;28;20735;-75
2021/12/21 11:08:08;;;;;;;10.97;7.73;;;;;;;;;;4978835;28;20251;-76
2021/12/21 11:10:48;;;;;;;10.70;8.60;;;;;;;;;;4995231;28;20224;-74
2021/12/21 11:13:14;;;;;;;9.90;8.50;;;;;;;;;;4977019;28;20283;-74
2021/12/21 11:15:44;;;;;;;11.30;8.53;;;;;;;;;;4996892;28;20236;-75
2021/12/21 11:18:16;;;;;;;10.13;8.40;;;;;;;;;;4984154;28;20235;-75
2021/12/21 11:20:43;;;;;;;9.10;8.20;;;;;;;;;;4984220;28;20225;-76
2021/12/21 11:23:09;;;;;;;8.83;7.43;;;;;;;;;;4994638;28;20652;-72
2021/12/21 11:25:42;;;;;;;12.63;7.70;;;;;;;;;;4996265;28;20224;-73
2021/12/21 11:28:10;;;;;;;7.50;6.27;;;;;;;;;;4995339;28;20227;-74
2021/12/21 11:30:38;;;;;;;9.77;6.63;;;;;;;;;;4979361;28;20237;-74
2021/12/21 11:33:06;;;;;;;8.07;7.27;;;;;;;;;;4974862;28;20237;-73
2021/12/21 11:38:07;;;;;;;11.27;7.83;;;;;;;;;;5018828;28;20235;-74
2021/12/21 11:40:37;;;;;;;11.53;7.63;;;;;;;;;;5016188;28;20211;-76
2021/12/21 11:43:34;;;;;;;8.67;7.43;;;;;;;;;;4979153;28;20294;-76
2021/12/21 11:46:06;;;;;;;12.07;8.07;;;;;;;;;;4996314;28;20248;-74
2021/12/21 11:48:33;;;;;;;8.67;7.77;;;;;;;;;;4996543;28;20240;-75
2021/12/21 11:51:10;;;;;;;10.53;7.93;;;;;;;;;;5012684;28;20231;-76
2021/12/21 11:53:43;;;;;;;9.90;8.10;;;;;;;;;;4979401;28;20216;-75
2021/12/21 11:56:19;;;;;;;10.37;8.07;;;;;;;;;;4993671;28;20240;-73
2021/12/21 11:58:49;;;;;;;13.30;8.80;;;;;;;;;;4985881;28;20221;-74
2021/12/21 12:01:19;;;;;;;11.77;9.33;;;;;;;;;;4995222;28;20224;-74
2021/12/21 12:04:01;;;;;;;12.77;9.27;;;;;;;;;;4994219;28;20303;-74
2021/12/21 12:06:28;;;;;;;11.67;9.63;;;;;;;;;;4994086;28;20240;-77
2021/12/21 12:09:02;;;;;;;10.93;8.50;;;;;;;;;;4994862;28;20224;-76
2021/12/21 12:11:35;;;;;;;10.07;8.80;;;;;;;;;;4994601;28;20590;-78
2021/12/21 12:14:15;;;;;;;11.63;9.23;;;;;;;;;;4993557;28;20237;-78
2021/12/21 12:16:44;;;;;;;11.37;9.37;;;;;;;;;;4980435;28;20252;-75
2021/12/21 12:19:14;;;;;;;14.20;9.30;;;;;;;;;;5001292;28;20223;-77
2021/12/21 12:21:39;;;;;;;11.50;9.27;;;;;;;;;;4987454;28;20311;-74
2021/12/21 12:24:05;;;;;;;12.27;10.30;;;;;;;;;;4983618;28;20301;-78
2021/12/21 12:26:37;;;;;;;12.60;9.37;;;;;;;;;;5015198;28;20228;-76
2021/12/21 12:29:14;;;;;;;10.50;9.40;;;;;;;;;;4974415;28;20225;-75
2021/12/21 12:32:00;;;;;;;11.37;9.53;;;;;;;;;;4975693;28;20217;-77
2021/12/21 12:34:29;;;;;;;12.80;8.97;;;;;;;;;;5009613;28;20228;-77
2021/12/21 12:36:57;;;;;;;10.40;8.47;;;;;;;;;;4994171;28;20212;-74
2021/12/21 12:39:33;;;;;;;13.13;9.60;;;;;;;;;;4993383;28;20212;-78
2021/12/21 12:42:29;;;;;;;13.90;9.50;;;;;;;;;;4978943;28;20694;-75
2021/12/21 12:45:16;;;;;;;12.47;8.97;;;;;;;;;;4990976;28;20224;-74
2021/12/21 12:47:49;;;;;;;10.70;9.20;;;;;;;;;;4975774;28;20214;-74
2021/12/21 12:50:21;;;;;;;10.60;9.33;;;;;;;;;;5004242;28;20729;-73
2021/12/21 12:53:01;;;;;;;11.30;10.00;;;;;;;;;;5004300;28;20215;-74
2021/12/21 12:55:42;;;;;;;13.30;10.00;;;;;;;;;;4996946;28;20220;-74
2021/12/21 12:58:14;;;;;;;14.23;9.33;;;;;;;;;;4988090;28;20220;-74
2021/12/21 13:00:43;;;;;;;11.90;10.27;;;;;;;;;;4981978;28;20220;-74
2021/12/21 13:03:10;;;;;;;15.13;10.23;;;;;;;;;;4977509;28;20249;-74
2021/12/21 13:05:52;;;;;;;13.03;10.33;;;;;;;;;;4979473;28;20234;-74
2021/12/21 13:08:21;;;;;;;13.27;10.80;;;;;;;;;;4965824;28;20225;-74
2021/12/21 13:10:48;;;;;;;12.47;10.00;;;;;;;;;;4977805;28;20245;-74
2021/12/21 13:13:14;;;;;;;12.40;10.80;;;;;;;;;;4991376;28;20222;-73
2021/12/21 13:15:46;;;;;;;13.80;10.70;;;;;;;;;;4995505;28;20232;-72
2021/12/21 13:18:17;;;;;;;12.07;10.00;;;;;;;;;;4984699;28;20693;-73
2021/12/21 13:20:46;;;;;;;12.33;10.93;;;;;;;;;;4992589;28;20224;-73
2021/12/21 13:23:21;;;;;;;12.83;9.90;;;;;;;;;;4988042;28;20221;-75
2021/12/21 13:25:52;;;;;;;13.93;10.63;;;;;;;;;;4985472;28;20224;-74
2021/12/21 13:28:23;;;;;;;13.10;11.63;;;;;;;;;;4998969;28;20217;-74
2021/12/21 13:30:50;;;;;;;14.87;10.43;;;;;;;;;;4983972;28;20674;-75
2021/12/21 13:33:23;;;;;;;13.57;11.43;;;;;;;;;;5011861;28;20320;-75
2021/12/21 13:35:56;;;;;;;14.80;11.03;;;;;;;;;;5011069;28;20227;-75
2021/12/21 13:38:25;;;;;;;12.13;10.53;;;;;;;;;;4990304;28;20675;-75
2021/12/21 13:41:05;;;;;;;13.53;10.97;;;;;;;;;;5006018;28;20251;-73
2021/12/21 13:43:36;;;;;;;11.87;9.43;;;;;;;;;;5016798;28;20255;-72
2021/12/21 13:46:04;;;;;;;11.07;8.73;;;;;;;;;;4976891;28;20233;-75
2021/12/21 13:48:34;;;;;;;13.47;9.07;;;;;;;;;;4953804;28;20232;-74
2021/12/21 13:51:12;;;;;;;8.90;8.00;;;;;;;;;;4981146;28;20221;-73
2021/12/21 13:53:48;;;;;;;9.17;8.00;;;;;;;;;;4996817;28;20224;-73
2021/12/21 13:56:24;;;;;;;8.77;7.57;;;;;;;;;;4979950;28;20229;-73
2021/12/21 13:58:54;;;;;;;10.07;8.13;;;;;;;;;;5014591;28;20215;-74
2021/12/21 14:01:21;;;;;;;9.87;7.47;;;;;;;;;;4983294;28;20231;-74
2021/12/21 14:03:53;;;;;;;10.10;8.03;;;;;;;;;;5003498;28;20896;-74
2021/12/21 14:06:23;;;;;;;9.93;8.77;;;;;;;;;;4984359;28;20251;-74
2021/12/21 14:08:58;;;;;;;9.73;8.43;;;;;;;;;;5000934;28;20225;-73
2021/12/21 14:11:32;;;;;;;9.47;8.30;;;;;;;;;;5012298;28;20220;-74
2021/12/21 14:14:02;;;;;;;9.73;7.83;;;;;;;;;;5008700;28;20227;-74
2021/12/21 14:16:31;;;;;;;9.33;8.33;;;;;;;;;;4991879;28;20225;-75
2021/12/21 14:18:58;;;;;;;9.90;8.43;;;;;;;;;;4963616;28;20335;-74
2021/12/21 14:21:37;;;;;;;10.20;8.37;;;;;;;;;;4996393;28;20294;-75
2021/12/21 14:24:09;;;;;;;10.27;8.37;;;;;;;;;;4986547;28;20267;-76
2021/12/21 14:26:51;;;;;;;10.90;8.77;;;;;;;;;;4985757;28;20599;-74
2021/12/21 14:29:27;;;;;;;13.60;8.47;;;;;;;;;;4995023;28;20217;-76
2021/12/21 14:32:14;;;;;;;11.10;8.90;;;;;;;;;;4997657;28;20702;-75
2021/12/21 14:34:42;;;;;;;12.27;9.70;;;;;;;;;;5022539;28;20607;-74
2021/12/21 14:37:27;;;;;;;13.67;9.70;;;;;;;;;;4996709;28;20222;-73
2021/12/21 14:39:58;;;;;;;13.97;9.80;;;;;;;;;;5009201;28;20270;-73
2021/12/21 14:42:30;;;;;;;10.97;9.53;;;;;;;;;;5014219;28;20216;-75
2021/12/21 14:44:59;;;;;;;15.13;9.87;;;;;;;;;;4985599;28;20267;-73
2021/12/21 14:47:29;;;;;;;12.63;10.37;;;;;;;;;;4975239;28;20665;-75
2021/12/21 14:50:06;;;;;;;12.00;10.53;;;;;;;;;;4958785;28;20247;-73
2021/12/21 14:52:40;;;;;;;14.37;11.07;;;;;;;;;;4960299;28;20237;-76
2021/12/21 14:55:12;;;;;;;15.00;10.27;;;;;;;;;;4955672;28;20236;-75
2021/12/21 14:57:47;;;;;;;13.60;11.07;;;;;;;;;;5012706;28;20608;-72
2021/12/21 15:00:18;;;;;;;11.97;10.23;;;;;;;;;;4976992;28;20224;-72
2021/12/21 15:05:15;;;;;;;13.13;11.50;;;;;;;;;;4967423;28;20312;-73
2021/12/21 15:07:45;;;;;;;15.17;11.83;;;;;;;;;;4976364;28;20225;-73
2021/12/21 15:10:14;;;;;;;13.40;10.70;;;;;;;;;;4963224;28;20228;-72
2021/12/21 15:12:40;;;;;;;12.77;10.60;;;;;;;;;;4988859;28;20709;-74
2021/12/21 15:15:06;;;;;;;14.77;11.40;;;;;;;;;;4984445;28;20222;-72
2021/12/21 15:17:31;;;;;;;15.33;11.97;;;;;;;;;;5010949;28;20224;-74
2021/12/21 15:19:57;;;;;;;14.13;11.93;;;;;;;;;;4975403;28;20314;-73
2021/12/21 15:22:25;;;;;;;14.70;10.20;;;;;;;;;;4974419;28;20226;-77
2021/12/21 15:24:51;;;;;;;14.33;11.03;;;;;;;;;;4993762;28;20231;-71
2021/12/21 15:27:16;;;;;;;14.20;11.03;;;;;;;;;;5012977;28;20236;-72
2021/12/21 15:29:42;;;;;;;15.17;11.20;;;;;;;;;;4982606;28;20218;-72
2021/12/21 15:32:13;;;;;;;14.93;11.20;;;;;;;;;;4988088;28;20216;-72
2021/12/21 15:34:44;;;;;;;12.77;11.03;;;;;;;;;;5003546;28;20358;-73
2021/12/21 15:37:13;;;;;;;14.20;11.30;;;;;;;;;;5012710;28;20261;-72
2021/12/21 15:39:40;;;;;;;14.37;11.27;;;;;;;;;;4998779;28;20709;-72
2021/12/21 15:42:16;;;;;;;14.47;11.13;;;;;;;;;;4999984;28;20709;-73
2021/12/21 15:44:46;;;;;;;14.03;11.90;;;;;;;;;;4986457;28;20318;-72
2021/12/21 15:47:18;;;;;;;14.90;11.47;;;;;;;;;;4995572;28;20220;-73
2021/12/21 15:49:47;;;;;;;16.73;11.17;;;;;;;;;;4964762;28;20593;-72
2021/12/21 15:52:12;;;;;;;11.90;10.23;;;;;;;;;;4994765;28;20594;-72
2021/12/21 15:54:39;;;;;;;12.43;10.53;;;;;;;;;;5009639;28;20247;-73
2021/12/21 15:57:04;;;;;;;15.60;11.77;;;;;;;;;;5001276;28;20228;-72
2021/12/21 15:59:30;;;;;;;12.90;11.10;;;;;;;;;;4987498;28;20224;-74
2021/12/21 16:01:56;;;;;;;16.07;11.90;;;;;;;;;;4993607;28;20217;-72
2021/12/21 16:04:26;;;;;;;19.10;12.40;;;;;;;;;;5005735;28;20322;-74